createdAt,value
2022-10-12T00:00:50.491Z,6.67
2022-10-12T00:03:19.172Z,4.77
2022-10-12T00:05:47.011Z,4.50
2022-10-12T00:08:14.415Z,6.70
2022-10-12T00:10:44.858Z,7.00
2022-10-12T00:13:12.103Z,7.03
2022-10-12T00:15:42.249Z,5.60
2022-10-12T00:18:09.253Z,6.30
2022-10-12T00:20:36.585Z,3.67
2022-10-12T00:23:03.614Z,3.97
2022-10-12T00:25:30.916Z,5.27
2022-10-12T00:27:57.836Z,6.03
2022-10-12T00:30:24.809Z,4.80
2022-10-12T00:32:51.818Z,7.37
2022-10-12T00:35:18.786Z,6.03
2022-10-12T00:37:45.736Z,4.40
2022-10-12T00:40:13.056Z,4.47
2022-10-12T00:42:40.493Z,5.57
2022-10-12T00:45:09.914Z,5.60
2022-10-12T00:47:41.549Z,5.93
2022-10-12T00:50:11.477Z,5.70
2022-10-12T00:52:47.101Z,5.23
2022-10-12T00:55:19.145Z,9.93
2022-10-12T00:57:49.730Z,5.63
2022-10-12T01:00:18.903Z,5.73
2022-10-12T01:02:49.290Z,4.03
2022-10-12T01:05:18.999Z,5.43
2022-10-12T01:07:46.251Z,4.97
2022-10-12T01:10:13.933Z,6.50
2022-10-12T01:12:44.108Z,5.30
2022-10-12T01:15:13.571Z,6.20
2022-10-12T01:18:04.923Z,7.60
2022-10-12T01:20:59.509Z,5.97
2022-10-12T01:24:00.401Z,6.23
2022-10-12T01:27:18.489Z,6.40
2022-10-12T01:30:25.896Z,7.33
2022-10-12T01:33:36.668Z,5.27
2022-10-12T01:36:33.718Z,7.70
2022-10-12T01:39:18.173Z,5.97
2022-10-12T01:41:50.457Z,5.40
2022-10-12T01:44:22.405Z,5.07
2022-10-12T01:46:50.290Z,5.90
2022-10-12T01:49:23.572Z,8.33
2022-10-12T01:51:59.851Z,6.17
2022-10-12T01:55:36.909Z,5.67
2022-10-12T01:58:33.681Z,4.73
2022-10-12T02:01:34.042Z,6.33
2022-10-12T02:04:03.736Z,7.03
2022-10-12T02:06:46.223Z,4.87
2022-10-12T02:09:28.160Z,9.37
2022-10-12T02:12:04.083Z,7.13
2022-10-12T02:15:04.194Z,9.27
2022-10-12T02:17:35.587Z,7.70
2022-10-12T02:20:04.262Z,6.00
2022-10-12T02:22:36.902Z,10.13
2022-10-12T02:25:11.143Z,6.97
2022-10-12T02:27:45.643Z,8.00
2022-10-12T02:30:13.396Z,5.40
2022-10-12T02:33:03.669Z,7.33
2022-10-12T02:35:52.469Z,6.13
2022-10-12T02:38:52.651Z,5.73
2022-10-12T02:41:36.483Z,8.67
2022-10-12T02:44:10.552Z,5.77
2022-10-12T02:46:41.334Z,6.93
2022-10-12T02:49:11.046Z,5.93
2022-10-12T02:51:41.073Z,4.63
2022-10-12T02:54:08.669Z,4.73
2022-10-12T02:56:42.001Z,5.90
2022-10-12T02:59:09.388Z,6.77
2022-10-12T03:01:36.883Z,6.73
2022-10-12T03:04:04.494Z,6.93
2022-10-12T03:06:31.873Z,9.47
2022-10-12T03:08:58.873Z,5.13
2022-10-12T03:11:25.824Z,8.20
2022-10-12T03:13:54.691Z,6.10
2022-10-12T03:16:22.766Z,6.60
2022-10-12T03:18:50.790Z,6.93
2022-10-12T03:21:18.014Z,7.67
2022-10-12T03:23:45.413Z,6.33
2022-10-12T03:26:12.482Z,6.97
2022-10-12T03:28:39.488Z,5.00
2022-10-12T03:31:06.507Z,5.90
2022-10-12T03:33:33.499Z,7.17
2022-10-12T03:36:00.478Z,6.10
2022-10-12T03:38:27.460Z,5.87
2022-10-12T03:40:54.501Z,6.70
2022-10-12T03:43:21.512Z,5.20
2022-10-12T03:45:48.499Z,5.70
2022-10-12T03:48:15.676Z,6.90
2022-10-12T03:50:42.690Z,6.17
2022-10-12T03:53:10.098Z,6.93
2022-10-12T03:55:37.057Z,5.93
2022-10-12T03:58:04.060Z,7.30
2022-10-12T04:00:31.257Z,4.87
2022-10-12T04:02:58.375Z,8.27
2022-10-12T04:05:25.487Z,7.43
2022-10-12T04:07:52.709Z,7.53
2022-10-12T04:10:20.307Z,4.67
2022-10-12T04:12:47.377Z,5.97
2022-10-12T04:15:14.777Z,6.23
2022-10-12T04:17:42.084Z,6.37
2022-10-12T04:20:11.643Z,6.70
2022-10-12T04:22:39.713Z,6.20
2022-10-12T04:25:07.163Z,7.53
2022-10-12T04:27:34.397Z,5.47
2022-10-12T04:30:01.364Z,5.67
2022-10-12T04:32:28.256Z,5.63
2022-10-12T04:34:55.195Z,7.07
2022-10-12T04:37:22.167Z,5.37
2022-10-12T04:39:49.112Z,4.60
2022-10-12T04:42:15.997Z,5.37
2022-10-12T04:44:43.025Z,7.23
2022-10-12T04:47:10.459Z,6.93
2022-10-12T04:49:37.840Z,7.77
2022-10-12T04:52:05.202Z,5.47
2022-10-12T04:54:32.872Z,6.70
2022-10-12T04:57:00.209Z,5.93
2022-10-12T04:59:27.797Z,6.90
2022-10-12T05:01:54.892Z,5.33
2022-10-12T05:04:21.918Z,6.50
2022-10-12T05:06:48.824Z,5.47
2022-10-12T05:09:17.172Z,6.17
2022-10-12T05:11:44.513Z,6.17
2022-10-12T05:14:11.797Z,5.10
2022-10-12T05:16:38.736Z,5.77
2022-10-12T05:19:05.695Z,6.40
2022-10-12T05:21:33.591Z,4.80
2022-10-12T05:24:00.510Z,8.33
2022-10-12T05:26:27.678Z,6.10
2022-10-12T05:28:54.848Z,6.70
2022-10-12T05:31:21.814Z,6.60
2022-10-12T05:33:48.794Z,7.93
2022-10-12T05:36:15.832Z,6.57
2022-10-12T05:38:42.805Z,5.37
2022-10-12T05:41:09.877Z,6.17
2022-10-12T05:43:36.802Z,7.07
2022-10-12T05:46:04.594Z,8.30
2022-10-12T05:48:33.159Z,5.60
2022-10-12T05:51:00.148Z,5.37
2022-10-12T05:53:27.715Z,6.33
2022-10-12T05:56:00.509Z,5.10
2022-10-12T05:58:30.627Z,8.73
2022-10-12T06:01:10.242Z,6.70
2022-10-12T06:03:37.549Z,7.40
2022-10-12T06:06:06.507Z,6.07
2022-10-12T06:08:35.004Z,5.73
2022-10-12T06:11:02.358Z,7.03
2022-10-12T06:13:29.351Z,6.60
2022-10-12T06:15:56.651Z,5.53
2022-10-12T06:18:23.674Z,7.23
2022-10-12T06:21:08.743Z,6.93
2022-10-12T06:23:40.964Z,6.77
2022-10-12T06:26:07.943Z,5.03
2022-10-12T06:28:35.101Z,6.30
2022-10-12T06:31:02.119Z,9.60
2022-10-12T06:33:29.251Z,5.83
2022-10-12T06:35:57.013Z,7.60
2022-10-12T06:38:25.108Z,8.07
2022-10-12T06:40:53.554Z,8.10
2022-10-12T06:43:22.815Z,7.27
2022-10-12T06:45:50.421Z,7.23
2022-10-12T06:48:18.748Z,6.67
2022-10-12T06:50:47.876Z,6.83
2022-10-12T06:53:14.878Z,6.80
2022-10-12T06:55:41.984Z,6.00
2022-10-12T06:58:09.057Z,6.53
2022-10-12T07:00:36.369Z,7.07
2022-10-12T07:03:03.702Z,5.47
2022-10-12T07:05:30.677Z,7.53
2022-10-12T07:07:58.018Z,7.60
2022-10-12T07:10:25.410Z,6.37
2022-10-12T07:12:52.345Z,7.40
2022-10-12T07:15:19.555Z,7.00
2022-10-12T07:17:46.500Z,6.70
2022-10-12T07:20:13.986Z,8.00
2022-10-12T07:22:40.880Z,7.27
2022-10-12T07:25:08.633Z,8.33
2022-10-12T07:27:35.772Z,9.57
2022-10-12T07:30:03.987Z,6.20
2022-10-12T07:32:30.900Z,6.27
2022-10-12T07:34:57.831Z,5.90
2022-10-12T07:37:25.087Z,7.83
2022-10-12T07:39:57.075Z,4.53
2022-10-12T07:42:25.392Z,6.07
2022-10-12T07:44:52.527Z,5.83
2022-10-12T07:47:19.655Z,6.43
2022-10-12T07:49:46.557Z,5.70
2022-10-12T07:52:13.555Z,8.20
2022-10-12T07:54:40.478Z,4.73
2022-10-12T07:57:08.460Z,4.43
2022-10-12T07:59:35.389Z,5.37
2022-10-12T08:02:02.388Z,5.43
2022-10-12T08:04:29.398Z,5.10
2022-10-12T08:06:57.939Z,6.10
2022-10-12T08:09:24.877Z,4.07
2022-10-12T08:11:51.784Z,4.67
2022-10-12T08:14:18.736Z,10.93
2022-10-12T08:16:45.780Z,9.00
2022-10-12T08:19:13.678Z,5.17
2022-10-12T08:21:42.570Z,6.67
2022-10-12T08:24:11.352Z,5.90
2022-10-12T08:26:39.047Z,4.93
2022-10-12T08:29:08.129Z,3.60
2022-10-12T08:31:35.951Z,4.00
2022-10-12T08:34:04.240Z,5.77
2022-10-12T08:36:31.259Z,3.93
2022-10-12T08:38:58.464Z,7.33
2022-10-12T08:42:12.798Z,6.53
2022-10-12T08:45:19.889Z,8.60
2022-10-12T08:48:14.388Z,5.67
2022-10-12T08:50:54.633Z,5.23
2022-10-12T08:53:37.728Z,4.63
2022-10-12T08:56:05.110Z,5.53
2022-10-12T08:58:36.847Z,4.00
2022-10-12T09:01:26.002Z,5.50
2022-10-12T09:04:21.142Z,5.73
2022-10-12T09:07:19.831Z,8.07
2022-10-12T09:10:20.932Z,4.13
2022-10-12T09:13:25.761Z,5.30
2022-10-12T09:15:55.219Z,5.57
2022-10-12T09:18:40.831Z,4.33
2022-10-12T09:21:17.307Z,6.03
2022-10-12T09:23:45.040Z,5.90
2022-10-12T09:26:19.677Z,4.23
2022-10-12T09:28:54.547Z,4.23
2022-10-12T09:32:04.678Z,4.07
2022-10-12T09:34:32.646Z,4.60
2022-10-12T09:37:03.417Z,6.20
2022-10-12T09:39:39.630Z,3.87
2022-10-12T09:42:06.924Z,4.57
2022-10-12T09:44:44.757Z,4.63
2022-10-12T09:47:28.291Z,4.57
2022-10-12T09:50:04.270Z,3.30
2022-10-12T09:52:44.806Z,5.07
2022-10-12T09:55:15.540Z,5.03
2022-10-12T09:57:54.467Z,5.30
2022-10-12T10:00:32.228Z,3.93
2022-10-12T10:03:01.227Z,5.90
2022-10-12T10:05:37.590Z,2.90
2022-10-12T10:08:24.282Z,7.17
2022-10-12T10:10:57.517Z,3.60
2022-10-12T10:13:31.693Z,2.70
2022-10-12T10:16:08.850Z,3.80
2022-10-12T10:18:49.249Z,4.50
2022-10-12T10:21:36.570Z,2.50
2022-10-12T10:24:21.713Z,3.27
2022-10-12T10:27:03.410Z,4.63
2022-10-12T10:29:37.851Z,3.27
2022-10-12T10:32:27.225Z,3.67
2022-10-12T10:35:13.218Z,2.77
2022-10-12T10:37:45.275Z,6.10
2022-10-12T10:40:32.210Z,6.90
2022-10-12T10:43:05.109Z,3.47
2022-10-12T10:48:24.640Z,4.93
2022-10-12T10:51:00.985Z,2.97
2022-10-12T10:53:42.066Z,3.67
2022-10-12T10:56:24.881Z,2.37
2022-10-12T10:59:15.576Z,3.73
2022-10-12T11:01:59.477Z,3.97
2022-10-12T11:04:45.701Z,5.90
2022-10-12T11:07:37.398Z,3.00
2022-10-12T11:10:30.501Z,3.43
2022-10-12T11:13:25.574Z,4.03
2022-10-12T11:16:11.602Z,3.37
2022-10-12T11:18:55.450Z,3.13
2022-10-12T11:21:39.493Z,3.37
2022-10-12T11:24:09.619Z,3.27
2022-10-12T11:26:51.232Z,3.43
2022-10-12T11:29:18.538Z,4.23
2022-10-12T11:32:07.725Z,4.07
2022-10-12T11:35:05.849Z,3.17
2022-10-12T11:37:47.550Z,2.87
2022-10-12T11:41:00.256Z,2.03
2022-10-12T11:43:26.706Z,3.07
2022-10-12T11:46:02.914Z,3.27
2022-10-12T11:48:52.741Z,3.37
2022-10-12T11:51:19.638Z,4.70
2022-10-12T11:54:18.755Z,3.83
2022-10-12T11:56:58.680Z,3.80
2022-10-12T11:59:44.214Z,2.67
2022-10-12T12:02:26.735Z,4.00
2022-10-12T12:04:54.747Z,3.60
2022-10-12T12:07:43.814Z,2.40
2022-10-12T12:10:44.271Z,3.47
2022-10-12T12:13:12.695Z,2.30
2022-10-12T12:16:03.813Z,3.60
2022-10-12T12:18:52.698Z,4.07
2022-10-12T12:21:20.139Z,4.07
2022-10-12T12:23:55.670Z,4.33
2022-10-12T12:26:28.067Z,4.47
2022-10-12T12:29:22.039Z,3.13
2022-10-12T12:31:59.120Z,3.93
2022-10-12T12:34:27.875Z,4.30
2022-10-12T12:36:56.457Z,3.43
2022-10-12T12:39:32.724Z,3.47
2022-10-12T12:42:09.192Z,5.23
2022-10-12T12:44:43.045Z,4.73
2022-10-12T12:50:02.462Z,3.60
2022-10-12T12:52:40.003Z,3.17
2022-10-12T12:55:50.673Z,5.53
2022-10-12T12:58:33.558Z,3.90
2022-10-12T13:01:36.745Z,3.83
2022-10-12T13:04:24.720Z,2.50
2022-10-12T13:07:00.516Z,3.43
2022-10-12T13:09:38.318Z,3.40
2022-10-12T13:12:32.399Z,3.30
2022-10-12T13:15:20.909Z,3.23
2022-10-12T13:18:48.834Z,5.67
2022-10-12T13:21:22.747Z,3.80
2022-10-12T13:24:11.823Z,4.80
2022-10-12T13:26:41.155Z,3.67
2022-10-12T13:29:20.120Z,3.77
2022-10-12T13:31:52.652Z,3.10
2022-10-12T13:34:26.841Z,4.00
2022-10-12T13:37:00.380Z,4.50
2022-10-12T13:39:28.769Z,7.80
2022-10-12T13:42:01.210Z,4.77
2022-10-12T13:44:36.452Z,4.53
2022-10-12T13:47:31.149Z,4.67
2022-10-12T13:49:58.861Z,5.23
2022-10-12T13:52:32.548Z,3.90
2022-10-12T13:55:01.115Z,6.40
2022-10-12T13:57:46.179Z,6.27
2022-10-12T14:00:18.628Z,6.33
2022-10-12T14:03:06.166Z,4.23
2022-10-12T14:05:42.333Z,4.20
2022-10-12T14:08:25.237Z,6.30
2022-10-12T14:10:55.099Z,3.77
2022-10-12T14:13:34.668Z,4.93
2022-10-12T14:16:05.012Z,4.53
2022-10-12T14:18:44.880Z,3.73
2022-10-12T14:21:26.789Z,5.07
2022-10-12T14:23:57.797Z,5.13
2022-10-12T14:26:30.173Z,4.37
2022-10-12T14:28:59.425Z,5.30
2022-10-12T14:31:52.894Z,3.40
2022-10-12T14:34:46.371Z,6.27
2022-10-12T14:37:16.078Z,5.90
2022-10-12T14:39:45.596Z,3.13
2022-10-12T14:42:28.262Z,4.53
2022-10-12T14:44:55.281Z,5.10
2022-10-12T14:47:43.020Z,5.10
2022-10-12T14:50:19.650Z,3.73
2022-10-12T14:52:49.950Z,5.80
2022-10-12T14:55:29.571Z,5.07
2022-10-12T14:57:57.884Z,5.57
2022-10-12T15:00:31.842Z,6.13
2022-10-12T15:03:00.028Z,6.33
2022-10-12T15:05:31.929Z,7.03
2022-10-12T15:08:00.590Z,4.53
2022-10-12T15:10:29.164Z,5.27
2022-10-12T15:12:56.607Z,5.17
2022-10-12T15:15:44.214Z,6.07
2022-10-12T15:18:11.680Z,6.53
2022-10-12T15:20:39.595Z,7.93
2022-10-12T15:23:06.997Z,6.47
2022-10-12T15:25:54.966Z,7.20
2022-10-12T15:28:23.300Z,4.43
2022-10-12T15:33:39.051Z,7.37
2022-10-12T15:36:07.039Z,4.03
2022-10-12T15:38:34.319Z,6.17
2022-10-12T15:41:01.683Z,9.67
2022-10-12T15:43:29.144Z,7.23
2022-10-12T15:45:56.605Z,5.53
2022-10-12T15:48:23.619Z,6.93
2022-10-12T15:50:50.725Z,5.47
2022-10-12T15:53:25.542Z,6.60
2022-10-12T15:55:56.051Z,5.03
2022-10-12T15:58:23.457Z,7.93
2022-10-12T16:00:50.603Z,5.47
2022-10-12T16:03:25.644Z,5.23
2022-10-12T16:05:53.883Z,7.43
2022-10-12T16:08:20.827Z,6.17
2022-10-12T16:10:48.961Z,5.53
2022-10-12T16:13:17.353Z,7.23
2022-10-12T16:15:44.657Z,5.77
2022-10-12T16:18:12.210Z,4.87
2022-10-12T16:20:41.358Z,5.53
2022-10-12T16:23:25.177Z,5.43
2022-10-12T16:25:53.095Z,5.90
2022-10-12T16:28:21.246Z,5.83
2022-10-12T16:30:49.649Z,5.63
2022-10-12T16:33:17.566Z,7.47
2022-10-12T16:35:45.040Z,7.80
2022-10-12T16:38:14.508Z,6.63
2022-10-12T16:40:42.547Z,6.17
2022-10-12T16:43:10.355Z,8.77
2022-10-12T16:45:38.175Z,5.53
2022-10-12T16:48:05.386Z,5.73
2022-10-12T16:50:32.373Z,5.70
2022-10-12T16:53:00.072Z,6.90
2022-10-12T16:55:27.042Z,6.17
2022-10-12T16:57:54.372Z,6.50
2022-10-12T17:00:21.784Z,6.27
2022-10-12T17:02:48.829Z,6.47
2022-10-12T17:05:15.902Z,6.43
2022-10-12T17:07:42.882Z,7.00
2022-10-12T17:10:10.432Z,6.07
2022-10-12T17:12:37.385Z,5.67
2022-10-12T17:15:05.736Z,7.20
2022-10-12T17:17:32.657Z,6.93
2022-10-12T17:19:59.615Z,6.37
2022-10-12T17:22:26.978Z,6.43
2022-10-12T17:24:53.891Z,4.70
2022-10-12T17:27:20.936Z,11.87
2022-10-12T17:29:47.993Z,7.77
2022-10-12T17:32:15.802Z,8.67
2022-10-12T17:34:44.822Z,8.43
2022-10-12T17:37:15.171Z,6.40
2022-10-12T17:39:46.219Z,6.70
2022-10-12T17:42:13.814Z,9.20
2022-10-12T17:44:40.948Z,9.73
2022-10-12T17:47:07.851Z,7.70
2022-10-12T17:49:35.240Z,8.50
2022-10-12T17:52:02.560Z,8.37
2022-10-12T17:54:29.612Z,9.07
2022-10-12T17:56:57.312Z,8.97
2022-10-12T17:59:25.161Z,6.37
2022-10-12T18:01:52.918Z,8.70
2022-10-12T18:04:20.356Z,8.00
2022-10-12T18:06:48.070Z,9.43
2022-10-12T18:09:15.656Z,9.10
2022-10-12T18:11:44.218Z,10.50
2022-10-12T18:14:13.191Z,7.50
2022-10-12T18:16:41.271Z,9.23
2022-10-12T18:19:11.588Z,9.17
2022-10-12T18:21:39.573Z,7.93
2022-10-12T18:24:16.108Z,9.30
2022-10-12T18:26:45.797Z,7.00
2022-10-12T18:29:16.174Z,11.00
2022-10-12T18:31:43.151Z,8.57
2022-10-12T18:34:10.537Z,9.57
2022-10-12T18:36:39.540Z,10.60
2022-10-12T18:39:06.540Z,7.57
2022-10-12T18:41:33.528Z,9.30
2022-10-12T18:44:02.450Z,8.40
2022-10-12T18:46:33.017Z,8.13
2022-10-12T18:49:04.961Z,9.07
2022-10-12T18:51:35.974Z,9.00
2022-10-12T18:54:04.285Z,8.37
2022-10-12T18:56:33.620Z,8.60
2022-10-12T18:59:02.338Z,9.93
2022-10-12T19:01:30.775Z,7.87
2022-10-12T19:04:00.636Z,9.07
2022-10-12T19:06:31.677Z,8.87
2022-10-12T19:09:01.350Z,6.77
2022-10-12T19:11:30.976Z,8.87
2022-10-12T19:14:08.020Z,7.03
2022-10-12T19:16:35.707Z,7.90
2022-10-12T19:19:07.254Z,9.37
2022-10-12T19:21:35.004Z,7.67
2022-10-12T19:24:04.345Z,7.30
2022-10-12T19:26:31.814Z,8.47
2022-10-12T19:28:58.832Z,8.77
2022-10-12T19:31:36.225Z,8.90
2022-10-12T19:34:08.127Z,10.87
2022-10-12T19:36:36.979Z,9.50
2022-10-12T19:39:12.051Z,8.10
2022-10-12T19:41:39.975Z,9.33
2022-10-12T19:44:07.094Z,8.97
2022-10-12T19:46:35.051Z,8.97
2022-10-12T19:49:01.987Z,9.87
2022-10-12T19:51:31.876Z,9.17
2022-10-12T19:54:04.847Z,11.67
2022-10-12T19:56:33.856Z,9.77
2022-10-12T19:59:00.843Z,9.60
2022-10-12T20:01:32.762Z,10.00
2022-10-12T20:03:59.911Z,12.37
2022-10-12T20:06:29.993Z,9.10
2022-10-12T20:09:02.272Z,9.03
2022-10-12T20:11:29.945Z,9.27
2022-10-12T20:13:57.958Z,12.73
2022-10-12T20:16:25.866Z,11.73
2022-10-12T20:18:52.938Z,9.10
2022-10-12T20:21:23.428Z,9.40
2022-10-12T20:23:51.449Z,10.07
2022-10-12T20:26:25.239Z,8.97
2022-10-12T20:28:54.357Z,11.60
2022-10-12T20:31:23.880Z,9.37
2022-10-12T20:33:53.003Z,10.33
2022-10-12T20:36:28.916Z,12.80
2022-10-12T20:38:58.822Z,9.60
2022-10-12T20:41:27.771Z,8.60
2022-10-12T20:44:00.322Z,7.70
2022-10-12T20:46:29.252Z,9.97
2022-10-12T20:48:59.705Z,9.57
2022-10-12T20:51:32.749Z,10.93
2022-10-12T20:54:01.185Z,10.93
2022-10-12T20:56:30.806Z,9.10
2022-10-12T20:58:58.900Z,11.87
2022-10-12T21:01:26.246Z,9.43
2022-10-12T21:03:54.482Z,9.63
2022-10-12T21:06:23.318Z,11.43
2022-10-12T21:08:53.117Z,10.37
2022-10-12T21:11:21.243Z,10.97
2022-10-12T21:13:48.760Z,10.27
2022-10-12T21:16:16.858Z,8.93
2022-10-12T21:18:43.920Z,9.63
2022-10-12T21:21:19.477Z,10.43
2022-10-12T21:23:55.921Z,9.00
2022-10-12T21:26:25.600Z,10.83
2022-10-12T21:28:53.037Z,11.77
2022-10-12T21:31:21.252Z,10.53
2022-10-12T21:33:48.308Z,12.27
2022-10-12T21:36:23.087Z,12.97
2022-10-12T21:38:50.671Z,10.40
2022-10-12T21:41:24.195Z,13.20
2022-10-12T21:43:52.444Z,10.70
2022-10-12T21:46:27.000Z,9.20
2022-10-12T21:48:54.591Z,10.57
2022-10-12T21:51:23.948Z,9.23
2022-10-12T21:53:52.285Z,13.70
2022-10-12T21:56:20.811Z,10.37
2022-10-12T21:58:49.341Z,10.43
2022-10-12T22:01:22.278Z,10.83
2022-10-12T22:03:57.646Z,9.50
2022-10-12T22:06:27.533Z,10.67
2022-10-12T22:09:00.755Z,12.23
2022-10-12T22:11:31.925Z,11.23
2022-10-12T22:14:05.312Z,12.13
2022-10-12T22:16:33.309Z,11.60
2022-10-12T22:19:03.798Z,11.87
2022-10-12T22:21:35.473Z,11.40
2022-10-12T22:24:02.703Z,11.23
2022-10-12T22:26:30.464Z,9.07
2022-10-12T22:29:01.546Z,11.80
2022-10-12T22:31:28.868Z,11.47
2022-10-12T22:33:56.409Z,13.00
2022-10-12T22:36:23.450Z,9.90
2022-10-12T22:38:50.559Z,11.33
2022-10-12T22:41:21.512Z,10.23
2022-10-12T22:43:52.349Z,11.70
2022-10-12T22:46:21.232Z,10.23
2022-10-12T22:48:49.150Z,10.70
2022-10-12T22:51:25.742Z,10.70
2022-10-12T22:53:52.755Z,11.03
2022-10-12T22:56:19.867Z,11.90
2022-10-12T22:58:48.886Z,9.70
2022-10-12T23:01:17.757Z,12.00
2022-10-12T23:03:45.905Z,9.00
2022-10-12T23:06:18.229Z,11.97
2022-10-12T23:08:46.322Z,10.23
2022-10-12T23:11:25.595Z,13.07
2022-10-12T23:13:54.388Z,11.73
2022-10-12T23:16:28.922Z,11.80
2022-10-12T23:19:01.954Z,10.43
2022-10-12T23:21:30.673Z,11.53
2022-10-12T23:24:00.183Z,11.30
2022-10-12T23:26:29.282Z,12.00
2022-10-12T23:28:56.772Z,11.03
2022-10-12T23:31:29.128Z,12.97
2022-10-12T23:34:04.254Z,10.40
2022-10-12T23:36:31.976Z,9.93
2022-10-12T23:39:04.521Z,11.63
2022-10-12T23:41:31.562Z,12.67
2022-10-12T23:43:59.046Z,13.27
2022-10-12T23:46:26.943Z,13.30
2022-10-12T23:48:56.545Z,10.07
2022-10-12T23:51:23.520Z,10.63
2022-10-12T23:53:50.908Z,10.57
2022-10-12T23:56:17.917Z,12.63
2022-10-12T23:58:44.867Z,11.27
